Time;durP1;ratioP1;P1;durP2;ratioP2;P2;SDS_P1;SDS_P2;PMS_P1;PMS_P2;Temp;Humidity;BMP_temperature;BMP_pressure;BME280_temperature;BME280_humidity;BME280_pressure;Samples;Min_cycle;Max_cycle;Signal;HPM_P1;HPM_P2
2021/11/26 00:01:20;;;;;;;18.67;10.45;;;;;;;0.34;95.61;97636.13;4213274;27;20067;-71
2021/11/26 00:03:20;;;;;;;18.60;10.77;;;;;;;0.35;95.83;97634.19;4210278;27;20214;-72
2021/11/26 00:05:21;;;;;;;22.83;11.25;;;;;;;0.34;95.88;97630.66;4211280;27;20054;-72
2021/11/26 00:07:21;;;;;;;17.55;10.38;;;;;;;0.37;95.86;97638.16;4207128;28;20055;-71
2021/11/26 00:09:22;;;;;;;18.33;10.70;;;;;;;0.41;95.65;97633.63;4209603;27;20039;-71
2021/11/26 00:11:22;;;;;;;21.70;10.23;;;;;;;0.38;95.98;97626.13;4213173;27;20494;-71
2021/11/26 00:13:29;;;;;;;17.35;10.27;;;;;;;0.40;96.26;97629.31;4209534;27;20134;-71
2021/11/26 00:17:33;;;;;;;17.67;10.95;;;;;;;0.40;96.28;97618.44;4208627;27;20484;-71
2021/11/26 00:19:34;;;;;;;17.23;9.85;;;;;;;0.49;96.39;97616.44;4212941;27;20101;-71
2021/11/26 00:21:39;;;;;;;18.33;10.75;;;;;;;0.50;96.07;97611.81;4210809;27;20495;-71
2021/11/26 00:23:40;;;;;;;18.73;10.85;;;;;;;0.45;95.77;97612.81;4213710;27;20054;-71
2021/11/26 00:25:41;;;;;;;19.23;11.07;;;;;;;0.45;96.02;97609.28;4210205;27;20393;-71
2021/11/26 00:27:41;;;;;;;16.25;10.35;;;;;;;0.47;96.20;97610.53;4208673;28;20547;-71
2021/11/26 00:29:42;;;;;;;19.90;11.00;;;;;;;0.45;96.50;97609.28;4209110;27;20040;-71
2021/11/26 00:31:42;;;;;;;19.27;10.45;;;;;;;0.42;96.59;97609.97;4207529;27;20392;-72
2021/11/26 00:33:43;;;;;;;18.83;10.45;;;;;;;0.41;96.76;97605.63;4212737;27;20077;-71
2021/11/26 00:35:43;;;;;;;20.42;11.18;;;;;;;0.40;96.60;97604.03;4212808;27;20048;-71
2021/11/26 00:37:44;;;;;;;18.15;10.02;;;;;;;0.37;97.00;97597.34;4210689;27;20404;-71
2021/11/26 00:39:44;;;;;;;18.70;11.25;;;;;;;0.40;97.37;97599.38;4210639;27;20379;-71
2021/11/26 00:41:45;;;;;;;20.88;11.35;;;;;;;0.38;97.33;97598.13;4208432;28;20146;-71
2021/11/26 00:43:45;;;;;;;18.33;10.68;;;;;;;0.39;97.44;97597.78;4207673;27;20059;-71
2021/11/26 00:45:46;;;;;;;20.85;11.00;;;;;;;0.40;97.50;97590.44;4209436;28;20036;-71
2021/11/26 00:47:46;;;;;;;17.98;9.95;;;;;;;0.44;97.76;97594.88;4204927;28;20048;-71
2021/11/26 00:49:47;;;;;;;18.30;10.10;;;;;;;0.43;97.17;97592.50;4207036;27;20040;-71
2021/11/26 00:51:48;;;;;;;21.80;10.52;;;;;;;0.41;97.62;97584.66;4206903;28;20055;-71
2021/11/26 00:53:48;;;;;;;19.40;9.68;;;;;;;0.45;97.53;97584.78;4206352;28;20367;-71
2021/11/26 00:55:49;;;;;;;18.67;10.25;;;;;;;0.47;97.08;97585.25;4204961;28;20055;-71
2021/11/26 00:57:49;;;;;;;17.65;10.05;;;;;;;0.44;97.32;97575.84;4205931;28;20036;-71
2021/11/26 00:59:50;;;;;;;16.95;9.60;;;;;;;0.44;97.10;97580.47;4206471;28;20125;-71
2021/11/26 01:01:50;;;;;;;16.55;9.20;;;;;;;0.44;97.12;97577.75;4204582;28;20073;-71
2021/11/26 01:03:50;;;;;;;18.65;9.35;;;;;;;0.43;97.22;97565.28;4207034;28;20219;-71
2021/11/26 01:05:51;;;;;;;14.35;8.55;;;;;;;0.40;97.36;97555.84;4205575;28;20044;-71
2021/11/26 01:07:51;;;;;;;16.05;9.07;;;;;;;0.39;97.42;97562.41;4211918;28;20043;-71
2021/11/26 01:09:52;;;;;;;19.17;10.27;;;;;;;0.38;96.81;97549.94;4209439;27;20035;-71
2021/11/26 01:11:52;;;;;;;16.38;8.98;;;;;;;0.38;96.46;97558.13;4205138;28;20044;-71
2021/11/26 01:13:53;;;;;;;13.45;8.18;;;;;;;0.34;96.54;97562.66;4207944;27;20491;-71
2021/11/26 01:15:53;;;;;;;16.45;9.95;;;;;;;0.31;96.78;97552.41;4204295;28;20047;-71
2021/11/26 01:17:55;;;;;;;15.52;9.32;;;;;;;0.24;97.02;97558.38;4205828;28;20193;-71
2021/11/26 01:19:55;;;;;;;14.65;8.38;;;;;;;0.24;97.60;97563.03;4206467;28;20088;-71
2021/11/26 01:21:55;;;;;;;18.20;8.95;;;;;;;0.18;97.49;97542.63;4205835;28;20036;-72
2021/11/26 01:23:56;;;;;;;18.58;9.48;;;;;;;0.15;97.99;97551.41;4206001;27;20051;-71
2021/11/26 01:25:57;;;;;;;12.63;8.18;;;;;;;0.08;97.86;97534.84;4206108;28;20048;-71
2021/11/26 01:27:57;;;;;;;18.02;9.70;;;;;;;0.01;98.13;97531.88;4206716;28;20066;-71
2021/11/26 01:29:58;;;;;;;15.65;9.35;;;;;;;-0.08;98.02;97529.22;4202955;28;20036;-71
2021/11/26 01:31:58;;;;;;;15.43;9.27;;;;;;;-0.12;98.43;97523.63;4206894;28;20040;-71
2021/11/26 01:33:59;;;;;;;15.20;8.57;;;;;;;-0.16;98.55;97516.47;4206900;28;20497;-71
2021/11/26 01:35:59;;;;;;;18.17;9.50;;;;;;;-0.20;98.77;97513.63;4204359;28;20048;-71
2021/11/26 01:38:00;;;;;;;15.85;8.45;;;;;;;-0.28;98.41;97514.47;4205769;28;20055;-71
2021/11/26 01:40:00;;;;;;;19.00;8.68;;;;;;;-0.30;98.80;97511.28;4205379;28;20036;-71
2021/11/26 01:42:01;;;;;;;17.77;8.75;;;;;;;-0.33;98.78;97512.75;4207660;27;20032;-71
2021/11/26 01:44:03;;;;;;;14.50;8.10;;;;;;;-0.35;98.99;97506.03;4206684;27;20039;-72
2021/11/26 01:46:07;;;;;;;15.02;8.05;;;;;;;-0.36;99.16;97505.25;4209296;27;20110;-71
2021/11/26 01:48:08;;;;;;;14.82;8.02;;;;;;;-0.34;98.81;97504.91;4209178;27;20112;-71
2021/11/26 01:50:10;;;;;;;19.17;9.70;;;;;;;-0.30;99.17;97497.72;4208552;27;20106;-71
2021/11/26 01:52:10;;;;;;;17.70;9.68;;;;;;;-0.30;99.11;97484.91;4209977;27;20044;-71
2021/11/26 01:54:11;;;;;;;17.48;8.98;;;;;;;-0.29;99.45;97475.63;4209267;27;20032;-71
2021/11/26 01:56:12;;;;;;;18.27;9.15;;;;;;;-0.22;98.87;97485.19;4208882;27;20233;-71
2021/11/26 01:58:12;;;;;;;17.20;8.85;;;;;;;-0.21;98.62;97475.91;4208408;27;20085;-71
2021/11/26 02:00:17;;;;;;;20.63;9.18;;;;;;;-0.21;98.02;97465.03;4211498;27;20371;-71
2021/11/26 02:02:20;;;;;;;18.58;9.00;;;;;;;-0.18;98.19;97470.56;4214194;27;20067;-71
2021/11/26 02:04:20;;;;;;;20.45;9.00;;;;;;;-0.17;98.04;97455.06;4211567;28;20051;-71
2021/11/26 02:06:21;;;;;;;17.08;9.30;;;;;;;-0.13;97.82;97461.44;4214973;27;20304;-71
2021/11/26 02:08:21;;;;;;;18.98;9.95;;;;;;;-0.12;98.06;97455.66;4208792;27;20047;-71
2021/11/26 02:10:22;;;;;;;17.92;9.05;;;;;;;-0.10;97.68;97463.47;4207295;27;20572;-71
2021/11/26 02:12:22;;;;;;;18.58;9.57;;;;;;;-0.08;97.66;97466.69;4209273;27;20048;-71
2021/11/26 02:14:23;;;;;;;19.38;10.15;;;;;;;-0.09;97.36;97457.69;4214820;27;20059;-71
2021/11/26 02:16:24;;;;;;;20.35;10.45;;;;;;;-0.01;97.68;97456.03;4209814;27;20123;-71
2021/11/26 02:18:25;;;;;;;19.52;10.55;;;;;;;0.01;97.47;97451.09;4211146;27;20043;-71
2021/11/26 02:20:29;;;;;;;19.58;10.20;;;;;;;-0.01;97.08;97448.69;4206550;27;20039;-71
2021/11/26 02:22:29;;;;;;;18.20;9.07;;;;;;;0.02;97.07;97452.66;4207775;27;20043;-71
2021/11/26 02:24:30;;;;;;;17.58;8.35;;;;;;;0.01;97.08;97444.84;4209097;27;20514;-71
2021/11/26 02:26:38;;;;;;;19.88;10.68;;;;;;;-0.03;96.93;97440.06;4207535;27;20094;-71
2021/11/26 02:28:40;;;;;;;17.48;9.05;;;;;;;0.00;96.99;97444.06;4207134;27;20075;-71
2021/11/26 02:30:41;;;;;;;;;;;;;;;0.03;96.90;97434.44;4207590;27;20071;-71
2021/11/26 02:32:44;;;;;;;21.42;9.25;;;;;;;0.13;96.74;97442.97;4208570;27;19915;-71
2021/11/26 02:34:44;;;;;;;20.20;9.75;;;;;;;0.13;95.97;97436.72;4209162;27;20040;-71
2021/11/26 02:36:45;;;;;;;17.10;10.07;;;;;;;0.13;96.05;97434.00;4209364;27;20054;-71
2021/11/26 02:38:45;;;;;;;19.27;10.38;;;;;;;0.10;96.02;97427.31;4211165;27;20105;-71
2021/11/26 02:40:46;;;;;;;19.85;10.35;;;;;;;0.04;96.16;97428.66;4208159;27;20028;-71
2021/11/26 02:42:49;;;;;;;24.60;10.95;;;;;;;0.05;96.54;97432.94;4211875;27;20046;-71
2021/11/26 02:44:50;;;;;;;22.48;10.48;;;;;;;0.06;96.66;97425.59;4207849;27;20055;-71
2021/11/26 02:46:50;;;;;;;19.60;9.30;;;;;;;0.02;96.98;97436.34;4210028;27;20044;-71
2021/11/26 02:48:51;;;;;;;19.63;10.25;;;;;;;-0.01;97.21;97418.75;4208713;27;20035;-71
2021/11/26 02:50:51;;;;;;;24.60;11.45;;;;;;;-0.04;97.41;97424.09;4209671;27;20058;-71
2021/11/26 02:52:52;;;;;;;20.08;10.43;;;;;;;-0.07;97.40;97416.59;4208208;27;20292;-71
2021/11/26 02:54:53;;;;;;;20.27;9.98;;;;;;;-0.02;97.95;97414.44;4209669;27;20059;-71
2021/11/26 02:56:53;;;;;;;23.05;10.52;;;;;;;-0.01;97.89;97417.97;4209407;27;20047;-71
2021/11/26 02:58:55;;;;;;;22.85;9.88;;;;;;;-0.04;97.76;97415.94;4205602;27;20317;-71
2021/11/26 03:00:58;;;;;;;18.98;9.13;;;;;;;-0.04;97.91;97424.09;4209684;27;20495;-71
2021/11/26 03:02:59;;;;;;;19.45;9.80;;;;;;;-0.06;97.58;97420.91;4208372;27;20117;-71
2021/11/26 03:04:59;;;;;;;17.85;9.70;;;;;;;-0.09;97.84;97418.84;4209531;27;20416;-71
2021/11/26 03:07:06;;;;;;;19.73;11.13;;;;;;;-0.14;98.12;97416.34;4205361;27;20051;-71
2021/11/26 03:09:06;;;;;;;20.48;9.88;;;;;;;-0.13;97.73;97421.44;4208067;27;20388;-71
2021/11/26 03:11:07;;;;;;;20.20;11.15;;;;;;;-0.17;98.17;97415.06;4212328;27;20040;-71
2021/11/26 03:13:09;;;;;;;20.40;10.38;;;;;;;-0.19;98.73;97417.34;4204873;27;20477;-71
2021/11/26 03:15:10;;;;;;;21.98;11.30;;;;;;;-0.20;98.74;97415.75;4208036;27;20427;-71
2021/11/26 03:17:11;;;;;;;22.85;12.32;;;;;;;-0.27;98.88;97410.06;4209847;27;20321;-71
2021/11/26 03:19:11;;;;;;;23.48;11.57;;;;;;;-0.32;99.05;97400.19;4205999;27;20052;-71
2021/11/26 03:21:12;;;;;;;24.08;11.15;;;;;;;-0.36;99.32;97409.31;4206804;27;20044;-71
2021/11/26 03:23:12;;;;;;;21.33;10.25;;;;;;;-0.39;99.25;97401.84;4207293;27;20047;-71
2021/11/26 03:25:13;;;;;;;17.90;10.48;;;;;;;-0.43;99.61;97404.41;4206485;27;20156;-71
2021/11/26 03:27:14;;;;;;;20.00;10.88;;;;;;;-0.42;99.70;97400.56;4206625;27;20040;-71
2021/11/26 03:29:15;;;;;;;22.85;10.70;;;;;;;-0.41;99.81;97387.81;4206357;27;20841;-71
2021/11/26 03:31:15;;;;;;;22.27;9.82;;;;;;;-0.41;99.68;97385.88;4206735;27;20048;-71
2021/11/26 03:33:16;;;;;;;22.52;11.02;;;;;;;-0.39;99.79;97399.13;4208507;27;20483;-71
2021/11/26 03:35:18;;;;;;;22.38;11.85;;;;;;;-0.41;99.34;97396.75;4209683;27;20118;-71
2021/11/26 03:37:19;;;;;;;23.10;11.75;;;;;;;-0.45;99.48;97386.88;4209772;27;20044;-71
2021/11/26 03:39:19;;;;;;;19.83;10.27;;;;;;;-0.45;99.34;97393.09;4203664;27;20639;-71
2021/11/26 03:41:20;;;;;;;27.08;11.35;;;;;;;-0.45;99.71;97384.94;4208618;27;20051;-71
2021/11/26 03:43:20;;;;;;;22.60;11.65;;;;;;;-0.43;99.98;97387.31;4206082;28;20087;-71
2021/11/26 03:45:24;;;;;;;21.40;11.50;;;;;;;-0.40;100.00;97382.03;4209851;27;20134;-71
2021/11/26 03:47:25;;;;;;;19.80;9.70;;;;;;;-0.36;100.00;97382.16;4207909;27;20044;-71
2021/11/26 03:49:26;;;;;;;22.88;11.77;;;;;;;-0.37;100.00;97375.13;4205121;27;20040;-71
2021/11/26 03:51:27;;;;;;;24.65;12.18;;;;;;;-0.36;100.00;97374.78;4208575;27;20230;-71
2021/11/26 03:53:27;;;;;;;20.95;11.02;;;;;;;-0.33;100.00;97376.88;4204963;27;20046;-71
2021/11/26 03:55:28;;;;;;;22.80;11.60;;;;;;;-0.29;99.79;97366.91;4205784;27;20547;-71
2021/11/26 03:57:28;;;;;;;18.30;9.60;;;;;;;-0.31;99.45;97369.16;4207847;27;20036;-71
2021/11/26 03:59:29;;;;;;;20.83;10.85;;;;;;;-0.26;99.59;97370.06;4205993;27;20047;-71
2021/11/26 04:01:30;;;;;;;21.10;10.30;;;;;;;-0.26;99.93;97362.72;4211936;27;20047;-71
2021/11/26 04:03:30;;;;;;;22.13;10.95;;;;;;;-0.25;99.58;97360.78;4210539;27;20040;-71
2021/11/26 04:05:31;;;;;;;22.05;10.85;;;;;;;-0.25;99.47;97363.50;4207505;27;20472;-71
2021/11/26 04:07:31;;;;;;;21.80;11.38;;;;;;;-0.26;99.75;97356.47;4205067;27;20838;-71
2021/11/26 04:09:32;;;;;;;23.23;11.25;;;;;;;-0.27;99.75;97355.69;4204888;27;20789;-71
2021/11/26 04:11:33;;;;;;;24.40;11.48;;;;;;;-0.28;99.87;97349.47;4206731;27;20590;-71
2021/11/26 04:13:33;;;;;;;26.85;11.18;;;;;;;-0.34;100.00;97347.28;4204953;27;20077;-71
2021/11/26 04:15:37;;;;;;;23.35;11.77;;;;;;;-0.35;99.81;97343.75;4206408;27;20052;-71
2021/11/26 04:17:38;;;;;;;20.48;11.32;;;;;;;-0.34;99.80;97339.91;4211912;27;20047;-71
2021/11/26 04:19:38;;;;;;;23.50;11.38;;;;;;;-0.35;99.76;97334.81;4208146;27;20791;-71
2021/11/26 04:21:39;;;;;;;23.55;10.95;;;;;;;-0.38;99.90;97333.56;4204377;27;20460;-71
2021/11/26 04:23:40;;;;;;;23.42;12.13;;;;;;;-0.36;100.00;97339.47;4207382;27;20071;-71
2021/11/26 04:25:40;;;;;;;23.80;12.10;;;;;;;-0.33;100.00;97332.59;4206667;27;20039;-71
2021/11/26 04:27:41;;;;;;;20.33;10.02;;;;;;;-0.28;100.00;97329.63;4209748;27;20066;-71
2021/11/26 04:29:42;;;;;;;24.67;11.07;;;;;;;-0.23;100.00;97326.72;4209205;27;20056;-71
2021/11/26 04:31:42;;;;;;;23.48;12.20;;;;;;;-0.21;99.78;97329.88;4209004;27;20040;-71
2021/11/26 04:33:43;;;;;;;19.30;10.48;;;;;;;-0.21;99.67;97329.88;4208949;28;20388;-71
2021/11/26 04:35:49;;;;;;;21.77;10.38;;;;;;;-0.22;99.42;97327.50;4204369;28;20048;-71
2021/11/26 04:37:50;;;;;;;23.35;9.73;;;;;;;-0.25;99.51;97326.25;4210003;28;20326;-71
2021/11/26 04:39:51;;;;;;;21.15;10.63;;;;;;;-0.28;99.95;97322.28;4208397;27;20397;-71
2021/11/26 04:41:51;;;;;;;19.02;10.07;;;;;;;-0.28;99.77;97321.47;4208249;28;20589;-71
2021/11/26 04:43:52;;;;;;;23.35;10.82;;;;;;;-0.28;99.87;97319.56;4207673;28;20035;-71
2021/11/26 04:45:53;;;;;;;23.55;10.68;;;;;;;-0.26;99.61;97318.41;4209753;27;20040;-71
2021/11/26 04:47:53;;;;;;;21.52;12.20;;;;;;;-0.29;99.66;97312.53;4208418;28;20123;-71
2021/11/26 04:49:54;;;;;;;21.02;10.27;;;;;;;-0.31;99.50;97319.44;4206396;28;20040;-71
2021/11/26 04:51:54;;;;;;;21.85;11.73;;;;;;;-0.37;99.49;97313.41;4208109;28;20040;-71
2021/11/26 04:53:55;;;;;;;21.88;10.82;;;;;;;-0.41;100.00;97309.00;4207710;28;20454;-71
2021/11/26 04:55:55;;;;;;;21.88;10.52;;;;;;;-0.41;100.00;97312.50;4206659;28;20083;-71
2021/11/26 04:57:56;;;;;;;22.60;11.10;;;;;;;-0.40;100.00;97313.31;4207324;27;20036;-71
2021/11/26 04:59:56;;;;;;;24.77;11.50;;;;;;;-0.40;100.00;97305.94;4209914;28;20036;-71
2021/11/26 05:01:57;;;;;;;27.67;12.90;;;;;;;-0.36;100.00;97312.28;4206080;28;20028;-71
2021/11/26 05:03:57;;;;;;;24.15;12.13;;;;;;;-0.35;100.00;97305.72;4208566;28;20479;-71
2021/11/26 05:05:59;;;;;;;27.65;12.32;;;;;;;-0.38;100.00;97303.69;4207771;28;20105;-71
2021/11/26 05:07:59;;;;;;;24.85;12.63;;;;;;;-0.36;100.00;97306.06;4208405;27;20092;-71
2021/11/26 05:10:02;;;;;;;24.88;11.93;;;;;;;-0.36;100.00;97306.06;4207510;28;20300;-72
2021/11/26 05:12:03;;;;;;;24.48;12.20;;;;;;;-0.37;100.00;97299.81;4211655;27;20393;-71
2021/11/26 05:14:04;;;;;;;22.42;11.15;;;;;;;-0.33;100.00;97291.81;4209267;28;20028;-71
2021/11/26 05:16:05;;;;;;;24.27;11.63;;;;;;;-0.29;100.00;97287.28;4211420;28;20410;-71
2021/11/26 05:18:06;;;;;;;23.58;11.85;;;;;;;-0.29;99.64;97287.28;4211135;27;20032;-71
2021/11/26 05:20:06;;;;;;;19.67;11.05;;;;;;;-0.26;99.82;97297.47;4210130;27;20619;-72
2021/11/26 05:22:07;;;;;;;18.70;9.93;;;;;;;-0.29;99.45;97285.34;4209206;27;20038;-71
2021/11/26 05:24:07;;;;;;;21.15;11.23;;;;;;;-0.29;99.70;97284.56;4207757;27;20475;-71
2021/11/26 05:26:08;;;;;;;20.85;11.15;;;;;;;-0.29;99.92;97290.00;4208848;27;20333;-71
2021/11/26 05:28:09;;;;;;;24.40;11.52;;;;;;;-0.26;99.85;97289.31;4207931;27;20376;-71
2021/11/26 05:30:11;;;;;;;21.30;11.27;;;;;;;-0.25;99.76;97276.50;4208467;27;20402;-72
2021/11/26 05:32:11;;;;;;;22.45;11.27;;;;;;;-0.23;99.57;97279.72;4208555;27;20498;-72
2021/11/26 05:34:12;;;;;;;22.70;11.25;;;;;;;-0.24;99.30;97268.03;4210048;27;20437;-72
2021/11/26 05:36:13;;;;;;;22.10;10.50;;;;;;;-0.18;99.13;97271.31;4210274;27;20038;-72
2021/11/26 05:38:13;;;;;;;19.05;10.80;;;;;;;-0.17;98.94;97276.41;4208310;27;20089;-71
2021/11/26 05:40:15;;;;;;;20.10;9.95;;;;;;;-0.15;99.03;97271.47;4211661;27;20036;-71
2021/11/26 05:42:15;;;;;;;24.10;10.95;;;;;;;-0.17;99.21;97257.38;4210547;27;20092;-71
2021/11/26 05:44:15;;;;;;;21.88;11.38;;;;;;;-0.16;99.08;97269.09;4211424;27;20134;-71
2021/11/26 05:46:16;;;;;;;21.75;10.40;;;;;;;-0.17;98.99;97260.09;4212756;27;20032;-71
2021/11/26 05:48:16;;;;;;;22.20;11.40;;;;;;;-0.16;99.04;97263.66;4210959;27;20035;-71
2021/11/26 05:50:19;;;;;;;21.73;10.77;;;;;;;-0.15;98.84;97265.22;4206391;27;20459;-71
2021/11/26 05:52:19;;;;;;;19.90;10.88;;;;;;;-0.16;99.09;97260.94;4208371;27;20031;-71
2021/11/26 05:54:19;;;;;;;22.20;11.07;;;;;;;-0.16;99.03;97261.72;4213789;27;20032;-71
2021/11/26 05:56:20;;;;;;;21.85;10.48;;;;;;;-0.17;98.92;97262.03;4210981;27;20572;-71
2021/11/26 05:58:20;;;;;;;22.83;11.75;;;;;;;-0.16;98.55;97250.06;4208497;27;20857;-71
2021/11/26 06:00:24;;;;;;;23.38;10.77;;;;;;;-0.17;98.60;97243.78;4211014;27;20496;-71
2021/11/26 06:02:24;;;;;;;21.63;10.57;;;;;;;-0.17;98.32;97238.34;4206679;27;20161;-71
2021/11/26 06:04:26;;;;;;;22.63;10.77;;;;;;;-0.18;98.58;97236.78;4206955;27;20512;-71
2021/11/26 06:06:26;;;;;;;21.50;9.83;;;;;;;-0.16;98.39;97231.03;4209028;27;20515;-71
2021/11/26 06:08:27;;;;;;;20.92;10.57;;;;;;;-0.18;98.46;97231.34;4209031;27;20054;-71
2021/11/26 06:10:28;;;;;;;19.40;10.40;;;;;;;-0.16;98.51;97233.75;4205469;27;20038;-71
2021/11/26 06:12:28;;;;;;;23.80;11.48;;;;;;;-0.18;98.42;97236.78;4209842;27;20317;-71
2021/11/26 06:14:29;;;;;;;19.65;10.00;;;;;;;-0.21;98.52;97232.03;4208870;27;20109;-71
2021/11/26 06:16:29;;;;;;;19.48;9.98;;;;;;;-0.15;98.90;97238.03;4210465;27;20365;-72
2021/11/26 06:18:30;;;;;;;20.13;10.77;;;;;;;-0.12;98.12;97231.91;4207308;27;20056;-71
2021/11/26 06:20:30;;;;;;;22.05;10.60;;;;;;;-0.10;97.29;97227.72;4208136;27;20484;-71
2021/11/26 06:22:31;;;;;;;18.10;9.60;;;;;;;-0.05;96.93;97227.50;4208539;27;20114;-71
2021/11/26 06:24:31;;;;;;;23.52;11.02;;;;;;;-0.02;97.05;97226.03;4205354;27;20036;-71
2021/11/26 06:26:32;;;;;;;21.02;9.60;;;;;;;-0.06;96.79;97212.34;4209366;27;20146;-71
2021/11/26 06:28:32;;;;;;;22.15;11.93;;;;;;;-0.04;96.81;97217.44;4207930;27;20048;-71
2021/11/26 06:30:33;;;;;;;27.38;12.00;;;;;;;-0.05;96.67;97208.47;4208148;27;20114;-71
2021/11/26 06:32:33;;;;;;;20.85;9.75;;;;;;;-0.04;96.21;97209.28;4212854;27;20074;-71
2021/11/26 06:34:34;;;;;;;20.35;9.80;;;;;;;-0.04;95.79;97199.19;4208817;27;20036;-71
2021/11/26 06:36:34;;;;;;;17.02;9.85;;;;;;;-0.04;95.62;97196.47;4207953;27;20421;-71
2021/11/26 06:38:35;;;;;;;17.27;8.93;;;;;;;0.06;94.91;97208.81;4205874;27;20195;-71
2021/11/26 06:40:35;;;;;;;14.63;8.00;;;;;;;0.05;93.12;97203.72;4208299;27;20078;-71
2021/11/26 06:42:36;;;;;;;17.38;8.40;;;;;;;0.09;91.95;97199.19;4208497;27;20050;-71
2021/11/26 06:44:36;;;;;;;15.85;7.60;;;;;;;0.11;89.86;97194.19;4206042;27;20051;-71
2021/11/26 06:46:37;;;;;;;16.10;7.45;;;;;;;0.12;89.59;97190.34;4209958;27;20039;-71
2021/11/26 06:48:38;;;;;;;17.17;7.38;;;;;;;0.20;88.87;97192.16;4213482;27;20048;-71
2021/11/26 06:50:38;;;;;;;14.98;6.30;;;;;;;0.21;87.63;97182.84;4208506;27;20040;-71
2021/11/26 06:52:40;;;;;;;17.38;6.78;;;;;;;0.25;87.34;97187.28;4212553;27;20032;-71
2021/11/26 06:54:41;;;;;;;13.82;7.13;;;;;;;0.23;87.89;97191.47;4207957;27;20123;-71
2021/11/26 06:56:41;;;;;;;13.40;6.78;;;;;;;0.23;89.39;97180.59;4208128;27;20119;-71
2021/11/26 06:58:42;;;;;;;16.55;7.72;;;;;;;0.26;89.77;97188.06;4207310;27;20081;-71
2021/11/26 07:00:42;;;;;;;13.85;7.03;;;;;;;0.25;88.82;97184.56;4209521;27;20043;-71
2021/11/26 07:02:43;;;;;;;22.00;8.07;;;;;;;0.24;89.34;97182.16;4207178;27;20504;-71
2021/11/26 07:04:45;;;;;;;15.95;7.43;;;;;;;0.28;89.55;97188.53;4205976;27;20089;-71
2021/11/26 07:06:46;;;;;;;17.08;8.27;;;;;;;0.32;91.48;97186.69;4207340;27;20127;-71
2021/11/26 07:08:46;;;;;;;19.75;8.70;;;;;;;0.36;91.08;97179.44;4207013;27;20519;-71
2021/11/26 07:10:47;;;;;;;17.80;9.02;;;;;;;0.32;91.49;97175.81;4206838;27;20487;-71
2021/11/26 07:12:47;;;;;;;15.75;7.78;;;;;;;0.33;91.97;97176.59;4206298;28;20040;-71
2021/11/26 07:14:48;;;;;;;18.58;8.65;;;;;;;0.33;93.34;97166.50;4207803;27;20133;-71
2021/11/26 07:16:48;;;;;;;17.92;9.32;;;;;;;0.33;93.27;97169.22;4206509;27;20048;-71
2021/11/26 07:18:49;;;;;;;17.67;8.35;;;;;;;0.30;93.16;97156.31;4207023;27;20127;-71
2021/11/26 07:20:49;;;;;;;16.80;8.23;;;;;;;0.26;93.11;97148.06;4206461;27;20044;-71
2021/11/26 07:22:50;;;;;;;18.65;8.13;;;;;;;0.20;93.33;97149.44;4211715;27;20049;-71
2021/11/26 07:24:50;;;;;;;13.13;7.53;;;;;;;0.16;93.45;97145.78;4207827;27;20057;-71
2021/11/26 07:26:51;;;;;;;18.70;8.88;;;;;;;0.15;93.65;97132.53;4207066;27;20484;-71
2021/11/26 07:28:51;;;;;;;13.05;6.90;;;;;;;0.14;93.79;97139.13;4208332;27;20041;-71
2021/11/26 07:30:51;;;;;;;19.70;8.80;;;;;;;0.17;94.67;97133.00;4205955;28;20353;-71
2021/11/26 07:32:52;;;;;;;19.05;8.82;;;;;;;0.14;94.31;97129.03;4207284;27;20054;-71
2021/11/26 07:34:53;;;;;;;15.70;8.30;;;;;;;0.23;94.10;97123.47;4210615;27;20411;-72
2021/11/26 07:36:54;;;;;;;14.23;7.60;;;;;;;0.24;93.34;97119.59;4206179;27;20050;-71
2021/11/26 07:38:55;;;;;;;16.80;7.53;;;;;;;0.26;90.84;97115.41;4209160;27;20084;-71
2021/11/26 07:40:56;;;;;;;13.18;7.00;;;;;;;0.31;90.37;97113.59;4211943;27;20036;-71
2021/11/26 07:42:56;;;;;;;27.15;7.43;;;;;;;0.37;90.92;97109.50;4209657;27;20171;-71
2021/11/26 07:44:57;;;;;;;16.65;7.35;;;;;;;0.41;91.21;97102.22;4214781;27;20046;-71
2021/11/26 07:46:58;;;;;;;11.75;6.05;;;;;;;0.48;88.72;97105.13;4207735;27;20055;-71
2021/11/26 07:48:58;;;;;;;13.55;6.60;;;;;;;0.54;87.77;97101.84;4211869;27;20595;-71
2021/11/26 07:50:59;;;;;;;14.70;7.05;;;;;;;0.54;89.68;97096.38;4205266;28;20159;-71
2021/11/26 07:52:59;;;;;;;10.48;5.57;;;;;;;0.58;87.45;97101.94;4205618;27;20360;-71
2021/11/26 07:55:00;;;;;;;13.68;5.93;;;;;;;0.57;88.59;97090.25;4207894;27;20043;-71
2021/11/26 07:57:00;;;;;;;12.45;5.22;;;;;;;0.59;88.88;97080.97;4207180;27;20047;-71
2021/11/26 07:59:02;;;;;;;12.27;5.75;;;;;;;0.64;90.38;97084.22;4204080;27;20063;-71
2021/11/26 08:01:03;;;;;;;10.43;5.18;;;;;;;0.72;83.27;97077.03;4207744;27;20040;-71
2021/11/26 08:03:03;;;;;;;8.52;4.90;;;;;;;0.82;84.42;97077.31;4206699;27;20351;-71
2021/11/26 08:05:04;;;;;;;9.18;4.78;;;;;;;0.74;84.42;97074.75;4204847;27;20047;-71
2021/11/26 08:07:06;;;;;;;12.07;6.07;;;;;;;0.73;83.59;97073.97;4207963;27;20124;-71
2021/11/26 08:09:07;;;;;;;14.55;4.88;;;;;;;0.78;85.20;97062.81;4206385;27;20449;-71
2021/11/26 08:11:08;;;;;;;12.35;6.97;;;;;;;0.78;84.04;97071.00;4206306;27;20067;-71
2021/11/26 08:13:09;;;;;;;8.93;5.18;;;;;;;0.76;82.52;97070.56;4205565;27;20040;-71
2021/11/26 08:15:13;;;;;;;9.68;3.97;;;;;;;0.88;80.73;97068.91;4209682;27;20047;-71
2021/11/26 08:17:14;;;;;;;8.98;4.93;;;;;;;0.93;84.84;97071.38;4206472;27;20431;-71
2021/11/26 08:19:14;;;;;;;8.50;4.30;;;;;;;0.95;83.96;97064.44;4203199;27;20048;-71
2021/11/26 08:21:15;;;;;;;7.53;4.03;;;;;;;0.95;83.36;97056.25;4207571;27;20051;-71
2021/11/26 08:23:15;;;;;;;8.13;4.20;;;;;;;0.95;82.15;97045.38;4206293;27;20040;-71
2021/11/26 08:25:19;;;;;;;9.23;3.67;;;;;;;1.03;81.34;97049.84;4206078;27;20514;-71
2021/11/26 08:27:19;;;;;;;9.32;4.28;;;;;;;1.02;82.10;97042.84;4206076;27;20076;-71
2021/11/26 08:29:20;;;;;;;8.10;3.65;;;;;;;1.05;82.23;97050.28;4206725;27;20117;-71
2021/11/26 08:31:20;;;;;;;5.97;3.90;;;;;;;1.05;83.04;97047.56;4205443;27;20368;-71
2021/11/26 08:33:21;;;;;;;10.38;4.35;;;;;;;1.13;82.50;97033.00;4207583;28;20036;-71
2021/11/26 08:35:24;;;;;;;9.82;3.55;;;;;;;1.19;81.19;97040.91;4206526;27;20467;-71
2021/11/26 08:37:25;;;;;;;8.40;3.92;;;;;;;1.18;82.16;97036.59;4209159;27;20040;-71
2021/11/26 08:39:26;;;;;;;10.20;4.00;;;;;;;1.17;83.04;97035.81;4206772;28;20051;-71
2021/11/26 08:41:27;;;;;;;6.05;3.70;;;;;;;1.17;81.78;97027.66;4205764;27;20521;-71
2021/11/26 08:43:27;;;;;;;9.02;4.22;;;;;;;1.22;83.40;97021.13;4208490;27;20487;-71
2021/11/26 08:45:28;;;;;;;7.82;4.55;;;;;;;1.17;81.78;97019.47;4205446;28;20032;-71
2021/11/26 08:47:28;;;;;;;7.40;3.75;;;;;;;1.22;83.92;97013.75;4208505;28;20040;-71
2021/11/26 08:49:29;;;;;;;11.68;4.53;;;;;;;1.19;83.28;97017.19;4205758;27;20044;-71
2021/11/26 08:51:33;;;;;;;9.25;4.43;;;;;;;1.11;82.22;97016.22;4205227;27;20643;-71
2021/11/26 08:53:36;;;;;;;7.35;3.35;;;;;;;1.18;83.76;97017.53;4210306;27;20074;-71
2021/11/26 08:55:39;;;;;;;10.50;4.15;;;;;;;1.21;82.92;97014.88;4210577;27;20040;-71
2021/11/26 08:57:43;;;;;;;9.00;3.72;;;;;;;1.21;82.16;97011.38;4218210;27;20123;-72
2021/11/26 08:59:44;;;;;;;7.65;3.33;;;;;;;1.32;82.56;97013.19;4208344;27;20048;-72
2021/11/26 09:01:44;;;;;;;8.23;3.55;;;;;;;1.32;83.76;97005.03;4209627;27;20063;-71
2021/11/26 09:03:46;;;;;;;6.80;3.03;;;;;;;1.33;82.31;97005.84;4209068;27;20072;-71
2021/11/26 09:05:47;;;;;;;9.30;4.40;;;;;;;1.36;81.95;97014.09;4209702;27;20044;-71
2021/11/26 09:07:47;;;;;;;6.47;2.97;;;;;;;1.43;80.51;97007.22;4212820;27;20445;-71
2021/11/26 09:09:48;;;;;;;7.88;3.05;;;;;;;1.55;79.49;97020.75;4207134;27;20048;-71
2021/11/26 09:11:49;;;;;;;8.18;3.25;;;;;;;1.60;80.63;97017.75;4211010;27;20353;-71
2021/11/26 09:13:50;;;;;;;6.60;3.60;;;;;;;1.75;78.00;97011.47;4210990;27;20036;-71
2021/11/26 09:15:50;;;;;;;7.78;3.03;;;;;;;1.81;78.45;97017.44;4210495;27;20043;-71
2021/11/26 09:17:52;;;;;;;4.32;2.83;;;;;;;1.83;79.84;97006.97;4211255;27;20052;-71
2021/11/26 09:19:53;;;;;;;8.15;3.28;;;;;;;1.89;78.22;97003.59;4210477;27;20479;-71
2021/11/26 09:21:53;;;;;;;7.18;3.20;;;;;;;1.96;79.84;97005.69;4208494;27;20040;-71
2021/11/26 09:23:55;;;;;;;8.00;3.55;;;;;;;1.94;78.56;96995.13;4209758;27;20418;-71
2021/11/26 09:25:56;;;;;;;6.07;3.33;;;;;;;1.94;79.28;96986.16;4210140;27;20679;-71